Time;durP1;ratioP1;P1;durP2;ratioP2;P2;SDS_P1;SDS_P2;PMS_P1;PMS_P2;Temp;Humidity;BMP_temperature;BMP_pressure;BME280_temperature;BME280_humidity;BME280_pressure;Samples;Min_cycle;Max_cycle;Signal;HPM_P1;HPM_P2
2021/07/07 03:30:25;;;;;;;2.97;2.73;;;;;;;22.04;63.83;98695.31;8292385;23;20181;-82
2021/07/07 03:33:47;;;;;;;3.83;3.43;;;;;;;21.47;66.19;98691.34;6840748;29;20240;-81
2021/07/07 03:37:08;;;;;;;5.03;3.70;;;;;;;21.82;65.24;98707.75;6842924;28;20211;-82
2021/07/07 03:40:32;;;;;;;4.43;3.70;;;;;;;21.38;65.25;98679.31;6840262;28;21740;-82
2021/07/07 03:43:53;;;;;;;4.20;3.80;;;;;;;20.99;67.25;98674.69;6850533;28;20213;-82
2021/07/07 03:47:16;;;;;;;4.00;3.60;;;;;;;21.29;67.18;98667.25;6850644;28;20601;-82
2021/07/07 03:50:39;;;;;;;2.73;2.53;;;;;;;21.48;66.66;98651.84;6851502;28;20235;-82
2021/07/07 03:54:01;;;;;;;3.30;3.00;;;;;;;21.55;65.87;98675.13;6851573;28;20577;-82
2021/07/07 03:57:23;;;;;;;3.40;3.10;;;;;;;20.78;67.52;98647.25;6851108;28;20240;-82
2021/07/07 04:00:44;;;;;;;3.63;3.07;;;;;;;21.17;67.14;98694.13;6849804;28;20233;-82
2021/07/07 04:04:07;;;;;;;3.53;3.23;;;;;;;20.98;68.82;98701.28;6848965;28;20215;-82
2021/07/07 04:07:29;;;;;;;3.60;3.27;;;;;;;21.14;68.14;98713.88;6851279;28;20662;-82
2021/07/07 04:10:51;;;;;;;5.63;3.40;;;;;;;21.58;67.05;98698.44;6849827;28;20225;-82
2021/07/07 04:14:12;;;;;;;7.17;3.77;;;;;;;21.35;66.91;98682.59;6851033;28;20225;-82
2021/07/07 04:17:34;;;;;;;3.53;3.23;;;;;;;21.44;66.63;98700.13;6850080;28;20211;-83
2021/07/07 04:20:57;;;;;;;5.30;4.03;;;;;;;21.41;66.74;98673.25;6850401;28;20224;-82
2021/07/07 04:24:20;;;;;;;4.90;4.50;;;;;;;21.66;66.22;98704.19;6850757;28;20210;-81
2021/07/07 04:27:42;;;;;;;5.20;4.80;;;;;;;21.42;66.96;98699.59;6850407;28;20233;-83
2021/07/07 04:31:03;;;;;;;8.30;5.37;;;;;;;21.50;67.11;98712.75;6848792;28;20241;-83
2021/07/07 04:34:25;;;;;;;6.30;5.60;;;;;;;21.80;66.48;98713.53;6835368;28;21092;-83
2021/07/07 04:37:50;;;;;;;7.70;5.60;;;;;;;21.60;66.62;98723.72;6840398;28;20202;-82
2021/07/07 04:41:11;;;;;;;10.73;6.43;;;;;;;21.69;67.21;98720.16;6823478;29;20230;-83
2021/07/07 04:44:33;;;;;;;6.27;5.67;;;;;;;21.57;66.79;98708.63;6845977;28;20213;-84
2021/07/07 04:47:54;;;;;;;8.87;6.53;;;;;;;21.76;66.72;98720.69;6847488;28;20213;-82
2021/07/07 04:51:16;;;;;;;6.23;5.47;;;;;;;21.73;66.44;98721.22;6841901;28;20234;-82
2021/07/07 04:54:39;;;;;;;7.03;5.87;;;;;;;21.52;66.46;98736.06;6844243;28;20230;-82
2021/07/07 04:58:01;;;;;;;7.33;5.60;;;;;;;21.41;67.70;98737.19;6841697;28;20210;-83
2021/07/07 05:01:22;;;;;;;5.80;5.20;;;;;;;21.60;66.77;98704.50;6840080;28;20225;-83
2021/07/07 05:04:49;;;;;;;6.63;6.00;;;;;;;21.86;66.38;98741.78;6839500;28;20659;-83
2021/07/07 05:08:11;;;;;;;6.60;5.90;;;;;;;21.83;66.29;98743.16;6838651;28;20288;-83
2021/07/07 05:11:34;;;;;;;5.10;4.33;;;;;;;22.40;64.15;98721.50;6832491;28;20230;-83
2021/07/07 05:14:56;;;;;;;6.27;4.80;;;;;;;22.02;64.70;98711.25;6835288;29;20238;-83
2021/07/07 05:18:17;;;;;;;6.80;4.37;;;;;;;22.06;65.38;98752.72;6838898;29;20204;-83
2021/07/07 05:21:39;;;;;;;4.50;3.90;;;;;;;22.11;64.96;98759.00;6840210;28;20240;-83
2021/07/07 05:25:00;;;;;;;4.90;4.30;;;;;;;21.95;65.75;98753.84;6837084;29;20230;-82
2021/07/07 05:28:23;;;;;;;4.87;4.37;;;;;;;21.88;65.92;98758.78;6815835;29;20222;-83
2021/07/07 05:31:45;;;;;;;5.47;4.67;;;;;;;22.04;65.85;98771.38;6815444;29;20240;-83
2021/07/07 05:35:08;;;;;;;9.33;5.53;;;;;;;21.77;66.72;98768.97;6826917;29;20725;-83
2021/07/07 05:38:30;;;;;;;7.80;5.30;;;;;;;21.78;66.20;98778.03;6839008;29;20214;-83
2021/07/07 05:41:52;;;;;;;6.93;4.97;;;;;;;21.69;67.48;98790.66;6842406;28;20258;-82
2021/07/07 05:45:14;;;;;;;5.67;5.03;;;;;;;21.93;66.40;98786.22;6842180;28;20262;-82
2021/07/07 05:48:36;;;;;;;5.03;4.30;;;;;;;22.06;65.68;98802.94;6840762;28;20217;-83
2021/07/07 05:51:58;;;;;;;6.53;5.03;;;;;;;22.05;66.55;98800.47;6842197;28;20701;-83
2021/07/07 05:55:20;;;;;;;4.73;3.90;;;;;;;21.56;66.45;98803.03;6843560;28;20243;-82
2021/07/07 05:58:41;;;;;;;5.33;4.50;;;;;;;21.59;66.96;98812.63;6840135;28;20232;-83
2021/07/07 06:02:05;;;;;;;5.40;4.57;;;;;;;21.56;66.59;98807.66;6841778;28;20240;-82
2021/07/07 06:05:27;;;;;;;4.77;4.37;;;;;;;21.69;66.41;98804.41;6842356;28;20207;-83
2021/07/07 06:08:48;;;;;;;4.03;3.63;;;;;;;22.07;65.10;98801.03;6841092;28;20236;-82
2021/07/07 06:12:10;;;;;;;4.10;3.70;;;;;;;21.91;63.78;98783.78;6841446;28;20230;-82
2021/07/07 06:15:36;;;;;;;3.40;3.10;;;;;;;21.96;64.40;98786.50;6840566;29;20236;-82
2021/07/07 06:18:59;;;;;;;3.73;3.40;;;;;;;21.76;64.44;98793.94;6840478;28;20234;-83
2021/07/07 06:22:21;;;;;;;4.10;2.83;;;;;;;21.84;64.75;98798.91;6841262;28;20226;-83
2021/07/07 06:25:43;;;;;;;4.80;3.40;;;;;;;21.90;64.98;98781.31;6840545;28;20218;-83
2021/07/07 06:29:05;;;;;;;3.43;3.13;;;;;;;22.08;64.64;98786.19;6840357;28;20613;-83
2021/07/07 06:32:27;;;;;;;5.53;3.70;;;;;;;21.91;64.57;98788.44;6843932;28;20730;-82
2021/07/07 06:35:50;;;;;;;3.93;3.50;;;;;;;22.40;63.38;98764.63;6847366;28;20724;-83
2021/07/07 06:39:11;;;;;;;3.63;2.57;;;;;;;22.71;61.85;98779.91;6844251;28;20203;-83
2021/07/07 06:42:33;;;;;;;2.47;2.20;;;;;;;22.67;61.11;98818.13;6844269;28;20222;-82
2021/07/07 06:45:54;;;;;;;2.40;2.20;;;;;;;22.76;61.18;98813.69;6843735;28;20209;-82
2021/07/07 06:49:16;;;;;;;2.50;2.30;;;;;;;22.74;61.46;98818.66;6842499;28;20215;-83
2021/07/07 06:52:40;;;;;;;2.13;1.93;;;;;;;22.74;60.36;98790.34;6842086;28;20229;-83
2021/07/07 06:56:01;;;;;;;2.27;2.10;;;;;;;22.62;61.48;98800.84;6842232;28;20232;-83
2021/07/07 06:59:23;;;;;;;2.60;2.40;;;;;;;22.75;61.44;98835.97;6843368;28;20214;-83
2021/07/07 07:02:45;;;;;;;2.27;2.10;;;;;;;22.90;59.93;98814.69;6845612;28;20272;-83
2021/07/07 07:06:07;;;;;;;2.70;2.27;;;;;;;22.89;60.63;98861.75;6845408;28;20211;-83
2021/07/07 07:09:30;;;;;;;2.13;2.03;;;;;;;22.64;62.33;98865.44;6842775;29;20660;-83
2021/07/07 07:12:52;;;;;;;2.23;2.03;;;;;;;23.02;60.69;98861.13;6823482;28;20250;-83
2021/07/07 07:16:14;;;;;;;2.63;2.13;;;;;;;22.83;60.93;98871.94;6815261;29;20327;-82
2021/07/07 07:19:36;;;;;;;2.30;2.10;;;;;;;22.93;59.78;98866.38;6816869;29;20207;-83
2021/07/07 07:22:58;;;;;;;1.67;1.57;;;;;;;23.30;58.34;98866.75;6817874;29;20241;-83
2021/07/07 07:26:22;;;;;;;1.97;1.73;;;;;;;23.09;57.87;98832.19;6817442;29;20230;-83
2021/07/07 07:29:44;;;;;;;4.30;2.57;;;;;;;23.06;59.85;98868.50;6817022;29;20238;-83
2021/07/07 07:33:06;;;;;;;2.57;1.80;;;;;;;22.78;60.26;98858.19;6818914;29;20234;-83
2021/07/07 07:36:28;;;;;;;3.03;2.07;;;;;;;22.70;61.06;98863.47;6818203;29;20284;-83
2021/07/07 07:39:52;;;;;;;2.30;2.10;;;;;;;22.75;61.67;98853.28;6850724;28;20202;-83
2021/07/07 07:43:19;;;;;;;2.20;2.00;;;;;;;22.83;60.64;98799.63;6849780;28;20292;-83
2021/07/07 07:46:41;;;;;;;2.27;2.07;;;;;;;23.47;58.83;98844.31;6839380;29;20215;-83
2021/07/07 07:50:03;;;;;;;2.67;1.87;;;;;;;23.40;59.41;98836.41;6841497;29;20213;-83
2021/07/07 07:53:25;;;;;;;2.47;2.00;;;;;;;23.03;59.94;98827.00;6841428;29;20233;-83
2021/07/07 07:56:47;;;;;;;2.40;2.10;;;;;;;23.14;59.95;98828.59;6839190;29;20236;-83
2021/07/07 08:00:11;;;;;;;2.10;2.00;;;;;;;23.61;59.66;98854.38;6837686;29;20202;-83
2021/07/07 08:03:33;;;;;;;3.50;1.93;;;;;;;22.98;61.51;98876.53;6819943;28;20221;-83
2021/07/07 08:06:55;;;;;;;2.50;2.00;;;;;;;23.23;61.78;98891.00;6837607;28;20206;-83
2021/07/07 08:10:19;;;;;;;4.70;2.43;;;;;;;22.75;62.99;98890.94;6823842;28;20222;-83
2021/07/07 08:13:41;;;;;;;4.23;2.43;;;;;;;22.84;60.90;98892.00;6818576;28;20208;-83
2021/07/07 08:17:04;;;;;;;2.63;2.30;;;;;;;22.82;60.96;98907.94;6831978;28;20237;-83
2021/07/07 08:20:26;;;;;;;3.23;2.27;;;;;;;22.93;60.74;98920.56;6832997;28;20205;-83
2021/07/07 08:23:48;;;;;;;3.43;2.40;;;;;;;22.86;60.59;98931.03;6817962;28;20702;-83
2021/07/07 08:27:10;;;;;;;2.90;2.20;;;;;;;22.69;61.40;98922.31;6817124;29;20207;-83
2021/07/07 08:30:32;;;;;;;3.07;2.07;;;;;;;22.82;60.44;98932.69;6838951;29;20235;-83
2021/07/07 08:33:55;;;;;;;4.03;2.30;;;;;;;22.55;60.05;98915.75;6841505;28;20202;-83
2021/07/07 08:37:17;;;;;;;3.13;2.27;;;;;;;23.06;59.00;98922.72;6827014;29;20296;-83
2021/07/07 08:40:39;;;;;;;4.13;2.87;;;;;;;23.10;59.19;98910.03;6834704;29;20221;-83
2021/07/07 08:44:00;;;;;;;5.60;2.70;;;;;;;23.10;59.72;98902.59;6844502;29;20675;-83
2021/07/07 08:47:22;;;;;;;2.93;1.90;;;;;;;23.24;59.14;98911.91;6832219;28;20222;-83
2021/07/07 08:50:45;;;;;;;4.20;2.10;;;;;;;23.30;58.35;98915.47;6858822;28;20225;-83
2021/07/07 08:54:07;;;;;;;2.53;2.30;;;;;;;23.29;58.33;98911.03;6869569;28;20212;-83
2021/07/07 08:57:28;;;;;;;3.63;2.10;;;;;;;23.07;58.97;98900.41;6869340;28;20742;-83
2021/07/07 09:00:51;;;;;;;2.13;1.90;;;;;;;23.30;58.83;98897.00;6865760;28;20654;-83
2021/07/07 09:04:27;;;;;;;2.63;1.90;;;;;;;23.50;56.29;98905.16;6825214;29;20206;-83
2021/07/07 09:07:50;;;;;;;3.90;2.00;;;;;;;23.56;57.09;98909.50;6816460;29;20268;-83
2021/07/07 09:11:14;;;;;;;2.23;1.70;;;;;;;23.47;57.55;98919.47;6816257;29;20237;-83
2021/07/07 09:14:36;;;;;;;1.83;1.60;;;;;;;23.77;56.12;98918.44;6817338;29;20226;-83
2021/07/07 09:17:58;;;;;;;2.23;2.03;;;;;;;24.09;54.97;98921.50;6823942;28;20213;-83
2021/07/07 09:21:27;;;;;;;3.40;1.83;;;;;;;24.29;53.66;98932.31;6837082;28;20234;-83
2021/07/07 09:24:59;;;;;;;4.10;2.00;;;;;;;24.24;54.84;98924.13;6844391;28;20293;-83
2021/07/07 09:28:23;;;;;;;2.87;2.47;;;;;;;24.34;54.67;98935.03;6843268;29;20221;-83
2021/07/07 09:31:45;;;;;;;3.83;2.00;;;;;;;24.46;54.72;98943.72;6842231;28;20239;-83
2021/07/07 09:35:07;;;;;;;2.83;1.97;;;;;;;24.75;52.24;98930.75;6841889;28;20235;-83
2021/07/07 09:38:38;;;;;;;2.47;1.50;;;;;;;24.89;52.65;98920.69;6840841;29;20570;-84
2021/07/07 09:42:01;;;;;;;2.50;1.60;;;;;;;25.17;51.92;98948.16;6837644;28;20249;-83
2021/07/07 09:45:22;;;;;;;4.23;1.60;;;;;;;25.08;51.14;98951.88;6874483;23;20739;-86
2021/07/07 09:48:44;;;;;;;2.40;1.90;;;;;;;24.61;53.31;98958.19;6893765;28;20210;-84
2021/07/07 09:52:06;;;;;;;2.37;1.70;;;;;;;23.90;52.55;98948.09;6875115;28;20585;-86
2021/07/07 09:55:28;;;;;;;4.13;1.93;;;;;;;23.14;53.85;98853.34;6879551;28;20235;-83
2021/07/07 09:58:52;;;;;;;5.23;2.10;;;;;;;24.09;53.92;98940.78;6874801;28;20221;-82
2021/07/07 10:02:13;;;;;;;4.00;1.90;;;;;;;24.50;51.57;98948.38;6876914;28;20211;-82
2021/07/07 10:05:40;;;;;;;2.53;2.33;;;;;;;24.62;52.15;98942.50;6875007;28;20231;-83
2021/07/07 10:09:02;;;;;;;3.00;1.70;;;;;;;23.78;53.98;98937.41;6872762;28;20201;-83
2021/07/07 10:12:26;;;;;;;2.43;1.57;;;;;;;24.60;54.32;98944.72;6873790;28;20205;-84
2021/07/07 10:15:50;;;;;;;3.00;2.00;;;;;;;24.39;53.88;98957.03;6873364;28;20233;-82
2021/07/07 10:19:14;;;;;;;2.57;1.77;;;;;;;24.56;54.68;98954.66;6872014;28;20209;-83
2021/07/07 10:22:37;;;;;;;3.13;2.10;;;;;;;25.00;53.72;98938.72;6853940;28;20210;-83
2021/07/07 10:26:00;;;;;;;2.50;2.10;;;;;;;25.37;51.40;98941.59;6856672;28;20232;-86
2021/07/07 10:29:23;;;;;;;2.47;2.00;;;;;;;25.44;51.70;98922.72;6847123;28;20217;-85
2021/07/07 10:33:07;;;;;;;2.07;1.87;;;;;;;24.86;52.41;98951.59;6840656;28;20211;-84
2021/07/07 10:36:30;;;;;;;4.00;1.93;;;;;;;25.45;52.45;98963.00;6841233;29;20239;-83
2021/07/07 10:39:51;;;;;;;4.00;1.80;;;;;;;25.83;50.78;98932.31;6841050;29;20285;-81
2021/07/07 10:43:24;;;;;;;2.23;2.03;;;;;;;25.51;49.55;98954.38;6846007;29;20220;-84
2021/07/07 10:46:52;;;;;;;4.13;2.40;;;;;;;25.75;48.44;98949.59;6839070;28;20250;-81
2021/07/07 10:50:34;;;;;;;3.43;2.07;;;;;;;25.11;51.30;98951.28;6840252;29;20748;-82
2021/07/07 10:53:55;;;;;;;3.50;2.20;;;;;;;24.85;52.38;98938.91;6861357;28;20215;-83
2021/07/07 10:57:22;;;;;;;4.50;1.90;;;;;;;25.64;49.51;98928.75;6869234;28;20213;-86
2021/07/07 11:00:44;;;;;;;2.10;1.73;;;;;;;25.04;49.51;98951.66;6846486;28;20194;-86
2021/07/07 11:04:06;;;;;;;3.00;1.87;;;;;;;25.75;51.07;98960.63;6839224;29;20240;-84
2021/07/07 11:07:35;;;;;;;2.50;2.07;;;;;;;25.89;51.39;98961.50;6840047;29;20218;-84
2021/07/07 11:11:00;;;;;;;1.83;1.67;;;;;;;25.97;49.66;98941.53;6840776;28;20188;-84
2021/07/07 11:14:25;;;;;;;3.07;2.10;;;;;;;26.18;48.76;98936.47;6845126;28;20228;-84
2021/07/07 11:17:48;;;;;;;3.50;1.83;;;;;;;26.09;48.28;98972.28;6837293;29;20315;-84
2021/07/07 11:21:10;;;;;;;2.63;1.90;;;;;;;25.78;49.14;98951.72;6837761;29;20208;-84
2021/07/07 11:24:33;;;;;;;2.40;1.60;;;;;;;25.19;51.03;98942.34;6837909;29;20248;-85
2021/07/07 11:27:55;;;;;;;5.30;2.00;;;;;;;26.07;49.97;98941.34;6838615;29;20674;-83
2021/07/07 11:31:16;;;;;;;1.33;1.23;;;;;;;26.63;49.21;98952.25;6838507;29;20231;-84
2021/07/07 11:34:51;;;;;;;2.07;1.97;;;;;;;25.93;48.82;98943.25;6838045;28;20710;-85
2021/07/07 11:38:15;;;;;;;2.50;1.83;;;;;;;25.91;50.16;98947.44;6838604;29;20216;-85
2021/07/07 11:41:40;;;;;;;4.03;1.60;;;;;;;25.98;50.75;98951.47;6838052;29;20206;-84
2021/07/07 11:45:03;;;;;;;2.17;1.90;;;;;;;25.30;52.71;98917.09;6840626;29;20243;-86
2021/07/07 11:48:29;;;;;;;3.27;1.87;;;;;;;25.17;51.82;98867.28;6839859;29;20695;-86
2021/07/07 11:52:01;;;;;;;1.70;1.60;;;;;;;26.51;48.84;98938.91;6838006;29;20220;-85
2021/07/07 11:55:52;;;;;;;3.30;1.77;;;;;;;26.67;49.18;98947.78;6838210;28;20238;-85
2021/07/07 11:59:21;;;;;;;1.73;1.63;;;;;;;26.58;49.34;98925.53;6854766;28;20219;-85
2021/07/07 12:02:42;;;;;;;3.37;1.63;;;;;;;27.14;47.53;98887.25;6872566;28;20189;-84
2021/07/07 12:06:06;;;;;;;3.00;1.70;;;;;;;27.35;47.92;98929.22;6873015;28;20724;-84
2021/07/07 12:09:31;;;;;;;1.30;1.20;;;;;;;27.66;45.88;98916.31;6872470;28;20219;-85
2021/07/07 12:12:52;;;;;;;1.60;1.50;;;;;;;26.83;47.25;98888.25;6872200;28;20212;-85
2021/07/07 12:16:28;;;;;;;1.70;1.60;;;;;;;27.34;45.95;98895.16;6872634;28;20236;-85
2021/07/07 12:19:50;;;;;;;3.43;1.70;;;;;;;27.71;46.37;98924.53;6872264;28;20201;-85
2021/07/07 12:23:12;;;;;;;1.53;1.20;;;;;;;25.91;49.96;98917.88;6872519;28;20206;-84
2021/07/07 12:26:36;;;;;;;1.90;1.60;;;;;;;26.61;49.79;98904.72;6869056;28;20727;-85
2021/07/07 12:29:59;;;;;;;2.73;1.80;;;;;;;26.61;48.62;98869.56;6866810;28;20213;-85
2021/07/07 12:33:22;;;;;;;2.10;1.57;;;;;;;26.70;48.68;98909.25;6867484;28;20303;-85
2021/07/07 12:36:45;;;;;;;1.50;1.40;;;;;;;26.64;49.19;98898.56;6839670;29;20281;-86
2021/07/07 12:40:11;;;;;;;2.20;1.87;;;;;;;26.72;48.94;98909.75;6844345;29;20206;-85
2021/07/07 12:43:41;;;;;;;1.63;1.37;;;;;;;27.30;48.03;98907.19;6845509;29;20217;-85
2021/07/07 12:47:04;;;;;;;1.53;1.40;;;;;;;27.39;48.15;98908.06;6856641;28;20204;-85
2021/07/07 12:50:27;;;;;;;2.23;1.60;;;;;;;26.61;49.07;98908.31;6864280;28;20212;-83
2021/07/07 12:53:49;;;;;;;3.03;1.50;;;;;;;26.91;48.94;98910.50;6845808;28;20210;-85
2021/07/07 12:57:10;;;;;;;4.17;1.90;;;;;;;27.33;48.77;98912.91;6844240;28;20228;-85
2021/07/07 13:00:40;;;;;;;2.50;1.80;;;;;;;28.16;45.58;98910.38;6840181;28;20230;-84
2021/07/07 13:04:02;;;;;;;2.00;1.60;;;;;;;27.58;46.00;98917.88;6840596;29;20222;-85
2021/07/07 13:07:25;;;;;;;1.90;1.70;;;;;;;27.29;47.52;98902.75;6840160;29;20583;-84
2021/07/07 13:10:50;;;;;;;2.63;1.63;;;;;;;28.05;45.25;98927.56;6839934;28;20210;-83
2021/07/07 13:14:14;;;;;;;2.80;1.67;;;;;;;28.54;44.98;98933.00;6841617;29;20238;-84
2021/07/07 13:17:35;;;;;;;1.50;1.40;;;;;;;28.70;44.18;98921.16;6839088;29;20238;-85
2021/07/07 13:20:58;;;;;;;1.63;1.37;;;;;;;28.17;44.81;98934.19;6838918;29;20654;-84
2021/07/07 13:24:30;;;;;;;1.40;1.30;;;;;;;28.25;44.85;98938.97;6839173;29;20234;-84
2021/07/07 13:27:52;;;;;;;1.50;1.40;;;;;;;28.15;44.97;98919.84;6839136;29;20194;-85
2021/07/07 13:31:14;;;;;;;3.40;1.60;;;;;;;27.71;45.43;98930.88;6838482;29;20210;-86
2021/07/07 13:34:37;;;;;;;1.50;1.40;;;;;;;28.18;45.65;98937.78;6853916;28;20728;-84
2021/07/07 13:37:59;;;;;;;1.77;1.50;;;;;;;28.17;44.26;98909.22;6865368;28;20233;-84
2021/07/07 13:41:22;;;;;;;1.70;1.60;;;;;;;27.77;45.42;98939.91;6863716;28;20790;-84
2021/07/07 13:44:44;;;;;;;1.87;1.30;;;;;;;28.32;44.32;98883.84;6863620;28;20240;-85
2021/07/07 13:48:06;;;;;;;1.53;1.43;;;;;;;29.28;43.12;98940.31;6864003;28;20218;-84
2021/07/07 13:51:28;;;;;;;2.23;1.30;;;;;;;28.94;42.74;98923.50;6857610;28;20206;-85
2021/07/07 13:54:50;;;;;;;2.07;1.50;;;;;;;28.74;43.61;98930.47;6837384;29;20702;-85
2021/07/07 13:58:13;;;;;;;1.57;1.47;;;;;;;29.37;42.91;98941.16;6837804;29;20225;-85
2021/07/07 14:01:35;;;;;;;1.37;1.27;;;;;;;29.22;43.52;98942.44;6838910;28;20214;-86
2021/07/07 14:04:56;;;;;;;1.87;0.87;;;;;;;29.38;41.54;98929.69;6856208;28;20231;-85
2021/07/07 14:08:18;;;;;;;0.80;0.80;;;;;;;28.80;41.62;98926.41;6853278;28;20208;-84
2021/07/07 14:11:39;;;;;;;1.20;1.10;;;;;;;29.78;38.27;98938.78;6848221;28;20203;-85
2021/07/07 14:15:03;;;;;;;0.90;0.90;;;;;;;29.79;38.11;98944.00;6838122;29;20709;-85
2021/07/07 14:18:25;;;;;;;0.97;0.93;;;;;;;29.23;38.88;98935.72;6836948;29;20935;-84
2021/07/07 14:21:47;;;;;;;0.90;0.90;;;;;;;28.78;40.06;98950.09;6837418;28;20210;-87
2021/07/07 14:25:10;;;;;;;0.90;0.90;;;;;;;28.77;38.70;98945.69;6836892;29;20227;-88
2021/07/07 14:28:32;;;;;;;2.37;1.10;;;;;;;28.70;41.10;98951.69;6837078;29;20216;-87
2021/07/07 14:31:55;;;;;;;2.03;1.10;;;;;;;28.36;40.93;98920.13;6839576;28;20202;-86
2021/07/07 14:35:18;;;;;;;1.93;0.90;;;;;;;28.75;41.69;98956.25;6846361;28;20230;-88
2021/07/07 14:38:40;;;;;;;1.90;0.90;;;;;;;28.92;39.73;98951.63;6841988;28;20344;-87
2021/07/07 14:42:02;;;;;;;1.47;0.97;;;;;;;28.73;40.34;98947.44;6836532;29;20263;-87
2021/07/07 14:45:24;;;;;;;2.30;1.03;;;;;;;28.79;40.89;98960.84;6840072;28;20225;-87
2021/07/07 14:48:47;;;;;;;1.20;1.20;;;;;;;29.24;42.05;98948.47;6863302;28;20205;-86
2021/07/07 14:52:08;;;;;;;1.00;1.00;;;;;;;29.83;38.76;98946.97;6862713;28;20220;-86
2021/07/07 14:55:33;;;;;;;1.67;1.03;;;;;;;29.62;40.15;98941.25;6864011;28;20228;-86
2021/07/07 14:58:55;;;;;;;3.53;1.27;;;;;;;29.74;37.92;98937.81;6862960;28;20248;-87
2021/07/07 15:02:16;;;;;;;2.40;1.07;;;;;;;29.20;39.85;98891.91;6862563;28;20662;-87
2021/07/07 15:05:39;;;;;;;2.20;1.10;;;;;;;29.24;39.86;98931.00;6863233;28;20239;-86
2021/07/07 15:09:01;;;;;;;1.37;1.20;;;;;;;29.02;40.77;98937.44;6864088;28;20665;-87
2021/07/07 15:12:24;;;;;;;1.00;0.80;;;;;;;28.92;41.97;98934.13;6847823;28;20212;-85
2021/07/07 15:15:45;;;;;;;1.47;1.20;;;;;;;28.85;40.10;98934.59;6841460;29;20236;-86
2021/07/07 15:19:07;;;;;;;1.17;1.00;;;;;;;29.06;41.53;98929.28;6840594;29;20240;-85
2021/07/07 15:22:31;;;;;;;1.27;1.27;;;;;;;29.25;41.31;98922.31;6851517;28;20217;-84
2021/07/07 15:25:53;;;;;;;1.43;1.10;;;;;;;29.08;40.52;98932.59;6865283;28;20229;-85
2021/07/07 15:29:14;;;;;;;0.97;0.97;;;;;;;29.09;40.44;98920.34;6866128;28;20205;-85
2021/07/07 15:32:36;;;;;;;2.07;1.20;;;;;;;28.47;43.26;98930.66;6866325;28;20224;-84
2021/07/07 15:35:58;;;;;;;1.70;1.13;;;;;;;28.76;42.14;98907.94;6867094;28;20228;-86
2021/07/07 15:39:21;;;;;;;1.20;1.20;;;;;;;28.56;41.85;98914.88;6842298;28;20362;-84
2021/07/07 15:42:43;;;;;;;2.20;1.17;;;;;;;28.46;42.02;98906.00;6840887;29;20579;-85
2021/07/07 15:46:07;;;;;;;0.93;0.93;;;;;;;28.35;42.33;98879.63;6869357;23;20232;-84
2021/07/07 15:49:29;;;;;;;1.60;1.20;;;;;;;28.57;42.29;98910.13;6881623;28;20215;-85
2021/07/07 15:52:50;;;;;;;1.23;1.13;;;;;;;28.54;43.00;98911.59;6898642;28;20204;-84
2021/07/07 15:56:13;;;;;;;2.53;1.23;;;;;;;28.57;43.25;98882.38;6879703;28;20232;-83
2021/07/07 15:59:35;;;;;;;2.13;1.50;;;;;;;29.00;42.97;98906.44;6860362;28;20216;-84
2021/07/07 16:02:57;;;;;;;1.90;1.17;;;;;;;28.88;43.31;98889.53;6860279;28;20213;-84
2021/07/07 16:06:18;;;;;;;1.40;1.30;;;;;;;28.88;40.80;98892.31;6884290;28;20232;-84
2021/07/07 16:09:40;;;;;;;2.30;1.27;;;;;;;28.87;41.25;98882.34;6879380;28;20216;-84
2021/07/07 16:13:04;;;;;;;1.50;1.20;;;;;;;28.96;41.34;98879.63;6864490;28;20206;-84
2021/07/07 16:16:26;;;;;;;1.30;1.20;;;;;;;29.01;41.71;98862.84;6874577;28;20603;-84
2021/07/07 16:19:47;;;;;;;1.87;1.63;;;;;;;29.05;41.44;98842.41;6874087;28;20211;-84
2021/07/07 16:23:09;;;;;;;2.17;1.20;;;;;;;28.94;40.45;98838.28;6876096;28;20227;-84
2021/07/07 16:26:31;;;;;;;1.63;1.20;;;;;;;28.98;41.35;98894.84;6861999;28;20229;-84
2021/07/07 16:29:54;;;;;;;1.53;1.17;;;;;;;28.77;42.34;98901.25;6871584;28;20212;-85
2021/07/07 16:33:16;;;;;;;2.00;1.03;;;;;;;28.60;41.88;98899.22;6859601;28;20202;-84
2021/07/07 16:36:37;;;;;;;1.67;1.20;;;;;;;28.66;41.57;98895.16;6860280;28;20230;-84
2021/07/07 16:39:59;;;;;;;1.80;0.90;;;;;;;28.76;42.55;98899.59;6859645;28;20207;-84
2021/07/07 16:43:21;;;;;;;3.03;1.27;;;;;;;28.57;41.87;98890.72;6865669;28;20216;-84
2021/07/07 16:46:44;;;;;;;1.80;1.30;;;;;;;29.11;40.27;98899.44;6883092;28;20240;-84
2021/07/07 16:50:07;;;;;;;1.77;1.10;;;;;;;28.83;40.87;98875.00;6867679;28;20214;-84
2021/07/07 16:53:29;;;;;;;1.20;1.10;;;;;;;28.94;41.71;98898.53;6870677;28;20205;-84
2021/07/07 16:56:51;;;;;;;1.43;1.07;;;;;;;28.88;41.85;98892.31;6875014;28;20251;-85
2021/07/07 17:00:14;;;;;;;1.10;1.10;;;;;;;28.32;42.00;98803.44;6870846;28;20851;-85
2021/07/07 17:03:38;;;;;;;1.80;1.20;;;;;;;28.94;41.96;98896.56;6873622;28;20661;-85
2021/07/07 17:07:00;;;;;;;1.67;1.20;;;;;;;27.96;43.47;98904.53;6866622;28;20230;-85
2021/07/07 17:10:21;;;;;;;1.10;1.00;;;;;;;28.57;43.13;98908.19;6869692;28;20198;-85
2021/07/07 17:13:43;;;;;;;1.13;1.07;;;;;;;28.09;43.90;98907.25;6882522;28;20230;-83
2021/07/07 17:17:05;;;;;;;1.43;1.10;;;;;;;28.77;42.98;98906.81;6891699;28;20223;-84
2021/07/07 17:20:28;;;;;;;1.37;1.23;;;;;;;28.66;42.71;98891.59;6873225;28;20195;-84
2021/07/07 17:23:50;;;;;;;1.03;1.03;;;;;;;28.40;43.77;98907.28;6875162;28;20206;-84
2021/07/07 17:27:11;;;;;;;1.30;1.30;;;;;;;28.54;42.46;98899.69;6874342;28;20221;-83
2021/07/07 17:30:33;;;;;;;1.77;1.10;;;;;;;28.07;42.83;98906.72;6879136;28;20222;-84
2021/07/07 17:33:55;;;;;;;1.57;0.97;;;;;;;27.95;41.75;98895.38;6872912;28;20210;-84
2021/07/07 17:37:18;;;;;;;1.40;1.33;;;;;;;28.01;41.23;98890.53;6889790;28;20257;-84
2021/07/07 17:40:40;;;;;;;2.03;0.90;;;;;;;28.16;41.61;98907.59;6894210;28;20212;-84
2021/07/07 17:44:02;;;;;;;1.30;1.20;;;;;;;28.05;41.85;98897.91;6867502;28;20206;-84
2021/07/07 17:47:23;;;;;;;1.67;0.90;;;;;;;27.97;42.05;98911.69;6877472;28;20247;-84
2021/07/07 17:50:46;;;;;;;1.30;1.20;;;;;;;28.08;41.46;98913.88;6874462;28;20217;-84
2021/07/07 17:54:10;;;;;;;1.50;1.10;;;;;;;28.07;41.49;98917.81;6884735;28;20572;-83
2021/07/07 17:57:31;;;;;;;0.90;0.90;;;;;;;28.14;41.82;98920.94;6873885;28;20249;-84
2021/07/07 18:00:53;;;;;;;2.23;1.20;;;;;;;28.29;41.08;98930.81;6868282;28;20209;-84
2021/07/07 18:04:15;;;;;;;0.80;0.80;;;;;;;28.17;42.13;98936.13;6868407;28;20214;-84
2021/07/07 18:07:37;;;;;;;1.73;1.20;;;;;;;27.49;43.76;98925.28;6867805;28;20225;-84
2021/07/07 18:11:00;;;;;;;1.47;1.37;;;;;;;27.00;45.55;98927.16;6881387;28;20207;-84
2021/07/07 18:14:22;;;;;;;1.33;1.10;;;;;;;26.42;47.20;98931.63;6879251;28;20215;-84
2021/07/07 18:17:44;;;;;;;1.33;1.33;;;;;;;26.96;46.49;98940.00;6858187;28;20244;-84
2021/07/07 18:21:05;;;;;;;1.40;1.30;;;;;;;26.84;46.38;98923.91;6875855;28;20205;-84
2021/07/07 18:24:27;;;;;;;1.63;1.53;;;;;;;26.32;47.43;98912.44;6867184;28;20210;-84
2021/07/07 18:27:50;;;;;;;2.33;1.30;;;;;;;26.26;47.11;98927.47;6868476;28;20217;-84
2021/07/07 18:31:12;;;;;;;1.73;1.30;;;;;;;26.80;45.49;98939.50;6874274;28;20215;-85
2021/07/07 18:34:34;;;;;;;2.03;1.20;;;;;;;26.96;45.40;98934.47;6877378;28;20219;-84
2021/07/07 18:37:55;;;;;;;2.00;1.43;;;;;;;27.07;45.17;98902.69;6870945;28;20237;-84
2021/07/07 18:41:17;;;;;;;2.10;1.20;;;;;;;26.33;46.75;98928.75;6893032;28;20207;-84
2021/07/07 18:44:42;;;;;;;1.20;1.20;;;;;;;26.19;46.75;98921.53;6892292;28;20204;-84
2021/07/07 18:48:05;;;;;;;1.47;1.07;;;;;;;26.43;45.76;98938.78;6875266;28;20208;-84
2021/07/07 18:51:26;;;;;;;2.87;1.30;;;;;;;26.30;45.28;98903.66;6864449;28;20205;-84
2021/07/07 18:54:48;;;;;;;1.20;1.10;;;;;;;26.69;45.33;98934.44;6849155;28;20207;-84
2021/07/07 18:58:10;;;;;;;2.10;1.50;;;;;;;26.49;46.04;98935.59;6896658;28;20231;-84
2021/07/07 19:01:34;;;;;;;1.43;1.10;;;;;;;26.64;47.71;98940.06;6865065;28;20218;-84
2021/07/07 19:04:56;;;;;;;2.73;1.50;;;;;;;26.37;48.22;98949.09;6866149;28;20236;-85
2021/07/07 19:08:17;;;;;;;2.93;1.40;;;;;;;26.23;49.24;98969.53;6862483;28;20221;-84
2021/07/07 19:11:39;;;;;;;2.27;1.43;;;;;;;26.24;49.47;98979.50;6885035;28;20695;-84
2021/07/07 19:15:01;;;;;;;1.60;1.50;;;;;;;25.82;50.53;98943.66;6891247;28;20228;-83
2021/07/07 19:18:24;;;;;;;1.40;1.27;;;;;;;25.83;51.47;98968.22;6883513;28;20225;-83
2021/07/07 19:21:46;;;;;;;3.93;1.70;;;;;;;25.51;52.16;98970.94;6874941;28;20230;-84
2021/07/07 19:25:10;;;;;;;3.40;1.50;;;;;;;25.50;52.04;98954.66;6880935;28;20220;-83